메인 페이지
METAR-TAF:

METAR-TAF

공항 :

타슈켄트 국제공항

타슈켄트, 우즈베키스탄

위도: 41-16N, 경도: 069-16E, 고도: 489m

현재 날씨관측

예보는 24분 전, 20:30시(UTC)에 발표되었습니다.
무풍
온도 23°C
습도 57%
기압 1013 hPa
시정 10km 이상
고도 6600ft 상공 구름 조금, 적란운.

METAR: UTTT 202030Z 00000KT 9999 FEW066CB 23/14 Q1013 R08R/CLRD70 NOSIG

시각: 01:54 (20:54 UTC)

예보

예보는 3 시간 54분 전, 17:00시(UTC)에 발표되었습니다.
예보 대상 시간: 20일 18시부터 21일 18시까지 (UTC)
15kt
시정: 7000m
고도 6000ft 상공 구름 보통, 적란운.
고도 10000ft 상공 구름 많음
일시적
20일 18시부터 20일 24시까지 (UTC)
20kt, 순간 최대 풍속 30kt
시정: 4000m
고도 5000ft 상공 구름 많음, 적란운.
고도 10000ft 상공 흐림
뇌우, 약한비

TAF: UTTT 201700Z 2018/2118 35015KT 7000 SCT060CB BKN100 TEMPO 2018/2024 27020G30KT 4000 -TSRA BKN050CB OVC100

4,000개 이상의 공항 관측 자료 및 예보 (METAR 및 TAF 보고).

지도상에서 검색 가능한 기상관측소가 노란 점과 빨간 점으로 표시되어 있습니다.

기상관측소 명을 보려면 표시 위로 마우스를 이동하세요.

날씨 관측과 예보를 보려면 클릭하세요.

지도 변경 : 확대하려면 엑스 표시가 있는 녹색 버튼, 축소하려면 빼기 표시가 있는 녹색 버튼, 다음 페이지의 지도를 보려면 녹색 화살표를 클릭하세요.


METAR-TAF: